Ever Develop — 3FLF8 — position and weather

sailwx.info

Track history (hours):
 
Tides and Currents Weather Stations Pressure Air Temp Water Temp Dewpoint Dewpoint Depression Visibility Wind Speed Wind Dir Waves Ship Positions

Ever Develop

Last reported at 2017-Mar-26 17:33 UTC. Time now 2017-Apr-27 22:32 UTC.
Position N 01°18' E 103°20'.
Warning: this ship's position is 32 days out of date.

Type: Ship (hazmat cat D). MMSI: 356391000.

Date/timePositionNaut miles runAvg speedWind from/ knotsBaromVisibWave heightAir tempDewpointWater temp
2017-Mar-26 17:33N 01°18' E 103°20'1313.2
2017-Mar-26 16:34N 01°12' E 103°32'1111.0
2017-Mar-26 15:34N 01°15' E 103°43'5 4.6
2017-Mar-26 14:33N 01°16' E 103°47'0 0.0
2017-Mar-26 13:27N 01°16' E 103°47'0 0.0
2017-Mar-26 12:33N 01°16' E 103°47'0 0.0
2017-Mar-26 11:33N 01°16' E 103°47'0 0.0
2017-Mar-26 10:33N 01°16' E 103°47'0 0.0
2017-Mar-26 09:27N 01°16' E 103°47'0 0.0
2017-Mar-26 08:30N 01°16' E 103°47'0 0.0
2017-Mar-26 07:24N 01°16' E 103°47'0 0.0
2017-Mar-26 06:33N 01°16' E 103°47'0 0.0
2017-Mar-26 05:33N 01°16' E 103°47'0 0.0
2017-Mar-26 04:33N 01°16' E 103°47'0 0.0
2017-Mar-26 03:30N 01°16' E 103°47'0 0.0
2017-Mar-26 02:30N 01°16' E 103°47'1 0.8
2017-Mar-26 01:33N 01°15' E 103°47'7 6.9
2017-Mar-26 00:33N 01°12' E 103°41'9 9.1
2017-Mar-25 23:33N 01°12' E 103°31'3 2.6
2017-Mar-25 22:33N 01°12' E 103°29'2 1.8
2017-Mar-25 21:33N 01°12' E 103°27'1 0.8
2017-Mar-25 20:33N 01°12' E 103°28'1 1.0
2017-Mar-25 19:33N 01°12' E 103°29'10 9.6
2017-Mar-25 18:33N 01°20' E 103°33'1 1.5
2017-Mar-25 17:33N 01°22' E 103°33'0 0.0
2017-Mar-25 16:33N 01°22' E 103°33'0 0.0
2017-Mar-25 15:33N 01°22' E 103°33'0 0.0
2017-Mar-25 14:33N 01°22' E 103°33'0 0.0
2017-Mar-25 13:33N 01°22' E 103°33'0 0.0
2017-Mar-25 12:33N 01°22' E 103°33'0 0.0
2017-Mar-25 11:33N 01°22' E 103°33'0 0.0
2017-Mar-25 10:33N 01°22' E 103°33'0 0.0
2017-Mar-25 09:33N 01°22' E 103°33'0 0.0
2017-Mar-25 08:33N 01°22' E 103°33'0 0.0
2017-Mar-25 07:31N 01°22' E 103°33'0 0.0
2017-Mar-25 06:33N 01°22' E 103°33'0 0.0
2017-Mar-25 05:33N 01°22' E 103°33'0 0.0
2017-Mar-25 04:33N 01°22' E 103°33'0 0.0
2017-Mar-25 03:33N 01°22' E 103°33'0 0.0
2017-Mar-25 02:33N 01°22' E 103°33'0 0.0
2017-Mar-25 01:33N 01°22' E 103°33'0 0.0
2017-Mar-25 00:33N 01°22' E 103°33'0 0.0
2017-Mar-24 23:33N 01°22' E 103°33'0 0.0
2017-Mar-24 22:33N 01°22' E 103°33'0 0.0
2017-Mar-24 21:33N 01°22' E 103°33'0 0.0
2017-Mar-24 20:32N 01°22' E 103°33'0 0.0
2017-Mar-24 19:33N 01°22' E 103°33'0 0.0
2017-Mar-24 18:32N 01°22' E 103°33'0 0.0
2017-Mar-24 17:33N 01°22' E 103°33'0 0.0
2017-Mar-24 16:33N 01°22' E 103°33'2 2.3
2017-Mar-24 15:33N 01°20' E 103°33'9 8.8
2017-Mar-24 14:33N 01°11' E 103°30'1 0.9
2017-Mar-24 13:33N 01°11' E 103°29'2 2.4
2017-Mar-24 12:33N 01°11' E 103°27'9 8.7
2017-Mar-24 11:33N 01°16' E 103°20'  
Track history (hours):
 
Tides and Currents Weather Stations Pressure Air Temp Water Temp Dewpoint Dewpoint Depression Visibility Wind Speed Wind Dir Waves Ship Positions

Ever Develop

Last reported at 2017-Mar-26 17:33 UTC. Time now 2017-Apr-27 22:32 UTC.
Position N 01°18' E 103°20'.
Warning: this ship's position is 32 days out of date.

Type: Ship (hazmat cat D). MMSI: 356391000.

Date/timePositionNaut miles runAvg speedWind from/ knotsBaromVisibWave heightAir tempDewpointWater temp
2017-Mar-26 17:33N 01°18' E 103°20'1313.2
2017-Mar-26 16:34N 01°12' E 103°32'1111.0
2017-Mar-26 15:34N 01°15' E 103°43'5 4.6
2017-Mar-26 14:33N 01°16' E 103°47'0 0.0
2017-Mar-26 13:27N 01°16' E 103°47'0 0.0
2017-Mar-26 12:33N 01°16' E 103°47'0 0.0
2017-Mar-26 11:33N 01°16' E 103°47'0 0.0
2017-Mar-26 10:33N 01°16' E 103°47'0 0.0
2017-Mar-26 09:27N 01°16' E 103°47'0 0.0
2017-Mar-26 08:30N 01°16' E 103°47'0 0.0
2017-Mar-26 07:24N 01°16' E 103°47'0 0.0
2017-Mar-26 06:33N 01°16' E 103°47'0 0.0
2017-Mar-26 05:33N 01°16' E 103°47'0 0.0
2017-Mar-26 04:33N 01°16' E 103°47'0 0.0
2017-Mar-26 03:30N 01°16' E 103°47'0 0.0
2017-Mar-26 02:30N 01°16' E 103°47'1 0.8
2017-Mar-26 01:33N 01°15' E 103°47'7 6.9
2017-Mar-26 00:33N 01°12' E 103°41'9 9.1
2017-Mar-25 23:33N 01°12' E 103°31'3 2.6
2017-Mar-25 22:33N 01°12' E 103°29'2 1.8
2017-Mar-25 21:33N 01°12' E 103°27'1 0.8
2017-Mar-25 20:33N 01°12' E 103°28'1 1.0
2017-Mar-25 19:33N 01°12' E 103°29'10 9.6
2017-Mar-25 18:33N 01°20' E 103°33'1 1.5
2017-Mar-25 17:33N 01°22' E 103°33'0 0.0
2017-Mar-25 16:33N 01°22' E 103°33'0 0.0
2017-Mar-25 15:33N 01°22' E 103°33'0 0.0
2017-Mar-25 14:33N 01°22' E 103°33'0 0.0
2017-Mar-25 13:33N 01°22' E 103°33'0 0.0
2017-Mar-25 12:33N 01°22' E 103°33'0 0.0
2017-Mar-25 11:33N 01°22' E 103°33'0 0.0
2017-Mar-25 10:33N 01°22' E 103°33'0 0.0
2017-Mar-25 09:33N 01°22' E 103°33'0 0.0
2017-Mar-25 08:33N 01°22' E 103°33'0 0.0
2017-Mar-25 07:31N 01°22' E 103°33'0 0.0
2017-Mar-25 06:33N 01°22' E 103°33'0 0.0
2017-Mar-25 05:33N 01°22' E 103°33'0 0.0
2017-Mar-25 04:33N 01°22' E 103°33'0 0.0
2017-Mar-25 03:33N 01°22' E 103°33'0 0.0
2017-Mar-25 02:33N 01°22' E 103°33'0 0.0
2017-Mar-25 01:33N 01°22' E 103°33'0 0.0
2017-Mar-25 00:33N 01°22' E 103°33'0 0.0
2017-Mar-24 23:33N 01°22' E 103°33'0 0.0
2017-Mar-24 22:33N 01°22' E 103°33'0 0.0
2017-Mar-24 21:33N 01°22' E 103°33'0 0.0
2017-Mar-24 20:32N 01°22' E 103°33'0 0.0
2017-Mar-24 19:33N 01°22' E 103°33'0 0.0
2017-Mar-24 18:32N 01°22' E 103°33'0 0.0
2017-Mar-24 17:33N 01°22' E 103°33'0 0.0
2017-Mar-24 16:33N 01°22' E 103°33'2 2.3
2017-Mar-24 15:33N 01°20' E 103°33'9 8.8
2017-Mar-24 14:33N 01°11' E 103°30'1 0.9
2017-Mar-24 13:33N 01°11' E 103°29'2 2.4
2017-Mar-24 12:33N 01°11' E 103°27'9 8.7
2017-Mar-24 11:33N 01°16' E 103°20'  

Dump ship's entire track history